Time;durP1;ratioP1;P1;durP2;ratioP2;P2;SDS_P1;SDS_P2;PMS_P1;PMS_P2;Temp;Humidity;BMP_temperature;BMP_pressure;BME280_temperature;BME280_humidity;BME280_pressure;Samples;Min_cycle;Max_cycle;Signal;HPM_P1;HPM_P2
2022/08/30 00:02:04;;;;;;;13.00;5.75;;;23.60;89.40;;;;;;1900012;75;21088;-70
2022/08/30 00:04:34;;;;;;;8.88;5.70;;;23.60;89.40;;;;;;1900046;74;21047;-70
2022/08/30 00:07:03;;;;;;;10.28;5.60;;;23.70;89.40;;;;;;1899906;74;21193;-70
2022/08/30 00:09:33;;;;;;;15.63;7.08;;;23.70;89.40;;;;;;1899555;74;21009;-70
2022/08/30 00:12:03;;;;;;;10.88;5.90;;;23.70;89.30;;;;;;1893347;75;21127;-70
2022/08/30 00:14:32;;;;;;;11.88;6.35;;;23.70;89.20;;;;;;1893379;75;21017;-70
2022/08/30 00:17:02;;;;;;;7.60;6.42;;;23.70;89.20;;;;;;1893344;75;21033;-70
2022/08/30 00:19:31;;;;;;;9.18;5.78;;;23.70;89.30;;;;;;1893302;76;21095;-69
2022/08/30 00:22:00;;;;;;;11.22;5.92;;;23.70;89.20;;;;;;1893469;76;21057;-69
2022/08/30 00:24:30;;;;;;;11.45;6.00;;;23.60;89.00;;;;;;1893371;76;21060;-70
2022/08/30 00:26:59;;;;;;;13.35;6.12;;;23.60;89.00;;;;;;1893357;75;21083;-70
2022/08/30 00:29:29;;;;;;;10.93;5.67;;;23.50;89.20;;;;;;1893467;75;21029;-69
2022/08/30 00:31:58;;;;;;;10.45;5.67;;;23.40;89.60;;;;;;1893399;76;21034;-69
2022/08/30 00:34:27;;;;;;;14.13;6.62;;;23.40;89.80;;;;;;1893432;76;21033;-69
2022/08/30 00:36:58;;;;;;;12.05;6.85;;;23.40;89.90;;;;;;1893280;75;21026;-69
2022/08/30 00:39:27;;;;;;;8.60;6.25;;;23.40;89.70;;;;;;1893338;76;21037;-70
2022/08/30 00:41:56;;;;;;;15.28;6.22;;;23.40;89.80;;;;;;1893344;76;21021;-70
2022/08/30 00:44:25;;;;;;;10.23;5.83;;;23.40;89.70;;;;;;1893434;76;21075;-70
2022/08/30 00:46:55;;;;;;;11.85;6.22;;;23.40;89.70;;;;;;1893338;76;21084;-70
2022/08/30 00:49:24;;;;;;;9.08;5.80;;;23.50;89.80;;;;;;1893364;75;21084;-70
2022/08/30 00:51:54;;;;;;;10.70;5.60;;;23.50;89.70;;;;;;1893428;75;21017;-70
2022/08/30 00:54:24;;;;;;;11.10;5.62;;;23.50;89.70;;;;;;1893459;75;21499;-70
2022/08/30 00:56:54;;;;;;;10.53;6.03;;;23.50;89.60;;;;;;1893374;76;21135;-70
2022/08/30 00:59:25;;;;;;;7.85;5.30;;;23.50;89.50;;;;;;1893432;75;21021;-70
2022/08/30 01:01:54;;;;;;;8.35;5.60;;;23.40;89.30;;;;;;1893376;76;21164;-70
2022/08/30 01:04:26;;;;;;;10.78;4.92;;;23.30;89.50;;;;;;1893337;75;21001;-69
2022/08/30 01:06:55;;;;;;;6.75;4.62;;;23.20;89.80;;;;;;1893428;76;21033;-69
2022/08/30 01:09:25;;;;;;;12.05;5.03;;;23.20;90.00;;;;;;1893329;75;21068;-69
2022/08/30 01:11:54;;;;;;;7.70;5.17;;;23.20;90.00;;;;;;1893540;75;21113;-69
2022/08/30 01:14:24;;;;;;;6.60;4.60;;;23.20;90.00;;;;;;1893346;76;21095;-69
2022/08/30 01:16:55;;;;;;;9.93;5.28;;;23.20;90.00;;;;;;1893387;75;21037;-69
2022/08/30 01:19:45;;;;;;;7.53;5.40;;;23.20;90.00;;;;;;1893401;75;21511;-69
2022/08/30 01:22:34;;;;;;;7.78;5.30;;;23.20;89.90;;;;;;1893332;75;21093;-69
2022/08/30 01:25:07;;;;;;;10.40;5.80;;;23.20;90.00;;;;;;1893437;76;21129;-69
2022/08/30 01:27:39;;;;;;;9.85;6.17;;;23.20;90.00;;;;;;1893328;75;21010;-69
2022/08/30 01:30:09;;;;;;;7.85;5.97;;;23.20;89.90;;;;;;1893386;75;21025;-69
2022/08/30 01:32:44;;;;;;;8.55;5.67;;;23.20;90.00;;;;;;1893377;76;21107;-69
2022/08/30 01:35:15;;;;;;;9.00;5.78;;;23.20;90.00;;;;;;1893561;76;21460;-69
2022/08/30 01:37:46;;;;;;;10.20;5.90;;;23.20;90.00;;;;;;1893411;76;21100;-69
2022/08/30 01:40:16;;;;;;;11.93;6.62;;;23.20;90.00;;;;;;1893381;75;21029;-68
2022/08/30 01:42:45;;;;;;;10.60;6.00;;;23.20;90.10;;;;;;1893480;76;21033;-69
2022/08/30 01:45:15;;;;;;;11.70;5.45;;;23.20;90.10;;;;;;1893448;75;21151;-69
2022/08/30 01:47:44;;;;;;;11.73;6.03;;;23.30;90.10;;;;;;1893538;75;21061;-69
2022/08/30 01:50:14;;;;;;;11.48;5.80;;;23.30;90.10;;;;;;1893528;75;21025;-69
2022/08/30 01:52:43;;;;;;;7.92;5.50;;;23.30;90.10;;;;;;1893508;75;21022;-69
2022/08/30 01:55:12;;;;;;;10.82;5.97;;;23.30;90.10;;;;;;1893645;75;21105;-69
2022/08/30 01:57:42;;;;;;;11.43;6.25;;;23.30;90.10;;;;;;1893464;75;21057;-69
2022/08/30 02:00:12;;;;;;;13.95;6.30;;;23.30;90.10;;;;;;1893554;76;21041;-68
2022/08/30 02:02:41;;;;;;;13.55;6.35;;;23.30;90.10;;;;;;1893432;76;21002;-69
2022/08/30 02:05:11;;;;;;;12.85;5.80;;;23.30;90.10;;;;;;1893418;76;21099;-68
2022/08/30 02:07:41;;;;;;;12.75;6.75;;;23.40;90.10;;;;;;1893378;75;21049;-68
2022/08/30 02:10:11;;;;;;;13.70;6.45;;;23.40;90.00;;;;;;1893424;76;21103;-68
2022/08/30 02:12:40;;;;;;;10.58;5.90;;;23.30;89.90;;;;;;1893434;74;21065;-68
2022/08/30 02:15:11;;;;;;;10.82;6.10;;;23.20;90.00;;;;;;1893446;76;21037;-68
2022/08/30 02:17:41;;;;;;;12.43;5.72;;;23.10;90.10;;;;;;1893359;75;21030;-68
2022/08/30 02:20:11;;;;;;;9.78;5.87;;;23.10;90.30;;;;;;1893340;75;21080;-68
2022/08/30 02:22:41;;;;;;;11.12;5.72;;;23.10;90.20;;;;;;1893411;76;21099;-67
2022/08/30 02:25:10;;;;;;;13.78;5.05;;;23.00;90.30;;;;;;1893556;76;21017;-67
2022/08/30 02:27:39;;;;;;;10.95;5.17;;;23.00;90.40;;;;;;1893374;75;21049;-67
2022/08/30 02:30:11;;;;;;;8.70;5.42;;;23.00;90.50;;;;;;1893417;75;21061;-67
2022/08/30 02:32:40;;;;;;;12.58;6.10;;;22.90;90.50;;;;;;1893341;75;21013;-67
2022/08/30 02:35:10;;;;;;;10.90;5.35;;;22.90;90.50;;;;;;1893356;76;21119;-66
2022/08/30 02:37:39;;;;;;;11.88;5.92;;;22.90;90.50;;;;;;1893351;75;21032;-66
2022/08/30 02:40:09;;;;;;;9.78;4.92;;;22.90;90.50;;;;;;1893598;76;21412;-66
2022/08/30 02:42:40;;;;;;;11.12;5.72;;;22.90;90.50;;;;;;1893537;76;21033;-67
2022/08/30 02:45:10;;;;;;;11.75;6.87;;;22.90;90.40;;;;;;1893431;75;21049;-67
2022/08/30 02:47:39;;;;;;;13.32;5.28;;;22.80;90.30;;;;;;1893424;75;21037;-68
2022/08/30 02:50:09;;;;;;;8.95;5.20;;;22.80;90.40;;;;;;1893531;76;21033;-68
2022/08/30 02:52:39;;;;;;;7.92;5.00;;;22.70;90.50;;;;;;1893419;76;21041;-68
2022/08/30 02:55:09;;;;;;;5.97;4.60;;;22.70;90.50;;;;;;1893533;76;21099;-68
2022/08/30 02:57:38;;;;;;;9.38;4.70;;;22.60;90.60;;;;;;1893397;75;21017;-68
2022/08/30 03:00:11;;;;;;;9.55;4.87;;;22.60;90.70;;;;;;1893392;76;21131;-68
2022/08/30 03:02:40;;;;;;;8.15;5.15;;;22.70;90.80;;;;;;1893424;75;21057;-68
2022/08/30 03:05:11;;;;;;;13.43;6.92;;;22.70;90.70;;;;;;1893380;75;21029;-68
2022/08/30 03:07:42;;;;;;;6.65;4.30;;;22.80;90.70;;;;;;1893368;75;21037;-68
2022/08/30 03:10:11;;;;;;;10.85;4.75;;;22.80;90.90;;;;;;1893457;75;21037;-67
2022/08/30 03:15:41;;;;;;;9.55;4.90;;;22.80;90.50;;;;;;1900253;74;21538;-68
2022/08/30 03:18:11;;;;;;;8.43;5.67;;;22.80;90.40;;;;;;1900187;74;21492;-68
2022/08/30 03:20:41;;;;;;;9.55;5.72;;;22.80;90.40;;;;;;1900180;74;21028;-68
2022/08/30 03:23:11;;;;;;;7.10;5.05;;;22.70;90.40;;;;;;1900054;75;21029;-67
2022/08/30 03:25:41;;;;;;;14.45;7.22;;;22.60;90.50;;;;;;1937762;74;20997;-68
2022/08/30 03:28:10;;;;;;;9.15;5.65;;;22.60;90.60;;;;;;1924736;74;21103;-68
2022/08/30 03:30:39;;;;;;;10.48;5.87;;;22.60;90.60;;;;;;1924687;74;21025;-67
2022/08/30 03:33:09;;;;;;;9.18;6.15;;;22.60;90.70;;;;;;1924662;74;21573;-67
2022/08/30 03:35:38;;;;;;;11.38;6.05;;;22.70;90.60;;;;;;1924681;74;21001;-67
2022/08/30 03:38:07;;;;;;;6.58;5.50;;;22.70;90.60;;;;;;1924677;74;21095;-67
2022/08/30 03:40:36;;;;;;;9.05;5.50;;;22.80;90.60;;;;;;1924654;74;21014;-67
2022/08/30 03:43:06;;;;;;;10.75;5.80;;;22.80;90.60;;;;;;1924857;74;21033;-67
2022/08/30 03:45:35;;;;;;;11.48;6.05;;;22.80;90.70;;;;;;1924876;74;21005;-67
2022/08/30 03:48:05;;;;;;;10.45;5.47;;;22.90;90.70;;;;;;1924845;74;21038;-67
2022/08/30 03:50:35;;;;;;;10.00;5.95;;;23.00;90.60;;;;;;1923445;74;21114;-67
2022/08/30 03:53:05;;;;;;;11.00;5.60;;;23.10;90.50;;;;;;1924677;74;21104;-67
2022/08/30 03:55:34;;;;;;;12.23;5.80;;;23.10;90.40;;;;;;1924674;74;21088;-67
2022/08/30 03:58:03;;;;;;;8.65;5.72;;;23.20;90.40;;;;;;1924629;74;21069;-67
2022/08/30 04:00:33;;;;;;;10.58;6.25;;;23.20;90.40;;;;;;1924661;74;21006;-67
2022/08/30 04:03:02;;;;;;;8.23;5.15;;;23.30;90.40;;;;;;1924794;74;21122;-67
2022/08/30 04:05:32;;;;;;;10.18;6.15;;;23.40;90.30;;;;;;1924810;74;21117;-67
2022/08/30 04:08:01;;;;;;;12.18;6.35;;;23.50;90.20;;;;;;1924685;74;21018;-67
2022/08/30 04:10:30;;;;;;;9.53;6.55;;;23.60;90.10;;;;;;1924773;74;21088;-67
2022/08/30 04:13:00;;;;;;;11.38;6.53;;;23.50;89.80;;;;;;1924805;74;21054;-67
2022/08/30 04:15:29;;;;;;;11.85;6.58;;;23.50;89.90;;;;;;1924678;73;21175;-67
2022/08/30 04:17:59;;;;;;;15.48;6.95;;;23.50;90.00;;;;;;1924732;74;21135;-67
2022/08/30 04:20:28;;;;;;;13.93;7.58;;;23.60;90.00;;;;;;1924721;74;21107;-67
2022/08/30 04:22:57;;;;;;;10.82;7.50;;;23.60;90.00;;;;;;1924638;74;21026;-67
2022/08/30 04:25:27;;;;;;;16.87;7.53;;;23.60;89.90;;;;;;1924600;74;21083;-66
2022/08/30 04:27:56;;;;;;;15.55;7.50;;;23.60;89.70;;;;;;1924658;74;21025;-67
2022/08/30 04:30:25;;;;;;;16.82;9.30;;;23.50;89.70;;;;;;1924711;74;21026;-67
2022/08/30 04:32:54;;;;;;;11.12;7.58;;;23.50;89.90;;;;;;1924511;74;21006;-67
2022/08/30 04:35:24;;;;;;;12.03;7.65;;;23.60;90.00;;;;;;1924648;74;21111;-66
2022/08/30 04:37:54;;;;;;;13.45;7.90;;;23.60;89.90;;;;;;1924559;74;21037;-66
2022/08/30 04:40:24;;;;;;;17.15;7.58;;;23.60;89.90;;;;;;1924678;74;21022;-67
2022/08/30 04:42:55;;;;;;;10.55;7.62;;;23.60;89.90;;;;;;1924642;74;21045;-67
2022/08/30 04:45:24;;;;;;;9.80;7.58;;;23.70;89.80;;;;;;1924685;74;21030;-67
2022/08/30 04:47:53;;;;;;;16.05;7.65;;;23.80;89.80;;;;;;1924741;74;21145;-67
2022/08/30 04:50:23;;;;;;;14.05;8.55;;;23.80;89.70;;;;;;1924648;74;21077;-67
2022/08/30 04:52:52;;;;;;;15.85;8.63;;;23.90;89.70;;;;;;1924646;74;21061;-67
2022/08/30 04:55:24;;;;;;;15.58;8.73;;;24.00;89.60;;;;;;1924654;74;21087;-68
2022/08/30 04:57:53;;;;;;;22.55;10.32;;;24.10;89.70;;;;;;1924698;74;21291;-68
2022/08/30 05:00:22;;;;;;;19.12;9.18;;;24.20;89.70;;;;;;1924612;74;21034;-68
2022/08/30 05:02:52;;;;;;;21.00;11.75;;;24.30;89.50;;;;;;1924613;74;21025;-68
2022/08/30 05:05:40;;;;;;;25.52;12.15;;;24.40;89.40;;;;;;1924804;74;21012;-68
2022/08/30 05:08:11;;;;;;;17.75;11.35;;;24.50;89.00;;;;;;1924638;74;21095;-68
2022/08/30 05:10:42;;;;;;;21.85;12.50;;;24.60;88.90;;;;;;1924681;74;21029;-68
2022/08/30 05:13:12;;;;;;;22.17;10.65;;;24.70;88.70;;;;;;1924547;74;21049;-68
2022/08/30 05:15:42;;;;;;;30.40;12.23;;;24.70;88.50;;;;;;1915548;73;21029;-68
2022/08/30 05:18:12;;;;;;;23.73;11.68;;;24.80;88.30;;;;;;1875479;76;21024;-68
2022/08/30 05:20:42;;;;;;;26.12;13.45;;;25.00;88.10;;;;;;1909598;74;21033;-68
2022/08/30 05:23:11;;;;;;;23.85;13.22;;;25.00;88.00;;;;;;1909600;75;21033;-68
2022/08/30 05:25:42;;;;;;;38.67;18.70;;;25.10;87.90;;;;;;1909681;74;21080;-68
2022/08/30 05:28:11;;;;;;;27.30;15.28;;;25.20;87.80;;;;;;1909657;74;21033;-68
2022/08/30 05:30:41;;;;;;;29.37;15.20;;;25.30;87.70;;;;;;1909680;74;21025;-68
2022/08/30 05:33:10;;;;;;;29.80;12.43;;;25.40;87.60;;;;;;1909788;75;21032;-68
2022/08/30 05:35:39;;;;;;;28.47;12.05;;;25.50;87.40;;;;;;1909840;75;21009;-68
2022/08/30 05:38:08;;;;;;;23.10;12.33;;;25.60;87.20;;;;;;1909614;75;20997;-68
2022/08/30 05:40:42;;;;;;;18.12;11.05;;;25.70;86.70;;;;;;1909607;75;21025;-68
2022/08/30 05:43:13;;;;;;;26.85;12.35;;;25.80;86.40;;;;;;1909957;74;21060;-68
2022/08/30 05:45:42;;;;;;;24.30;9.35;;;25.90;86.30;;;;;;1909613;74;21087;-68
2022/08/30 05:48:11;;;;;;;24.63;8.95;;;26.00;85.80;;;;;;1909803;75;21505;-68
2022/08/30 05:50:40;;;;;;;27.85;9.40;;;26.00;85.10;;;;;;1909640;74;21020;-68
2022/08/30 05:53:10;;;;;;;16.65;6.85;;;26.10;84.70;;;;;;1909609;75;21118;-68
2022/08/30 05:55:41;;;;;;;15.75;6.87;;;26.10;83.80;;;;;;1909597;74;21033;-68
2022/08/30 05:58:10;;;;;;;24.35;6.97;;;26.20;82.80;;;;;;1909579;75;21095;-69
2022/08/30 06:00:40;;;;;;;14.43;5.80;;;26.30;82.80;;;;;;1909515;74;21032;-68
2022/08/30 06:03:11;;;;;;;20.35;7.60;;;26.40;82.60;;;;;;1935553;74;21029;-69
2022/08/30 06:05:41;;;;;;;12.30;5.40;;;26.50;82.20;;;;;;1935626;74;21117;-69
2022/08/30 06:08:10;;;;;;;19.25;7.15;;;26.50;80.70;;;;;;1935583;74;21025;-69
2022/08/30 06:10:39;;;;;;;16.80;5.62;;;26.60;79.40;;;;;;1935591;74;21042;-69
2022/08/30 06:13:09;;;;;;;14.70;5.83;;;26.70;78.70;;;;;;1935678;74;21083;-68
2022/08/30 06:15:47;;;;;;;15.45;5.47;;;26.80;78.50;;;;;;1947066;73;21123;-68
2022/08/30 06:18:13;;;;;;;15.32;5.55;;;26.80;78.10;;;;;;1952038;73;21030;-69
2022/08/30 06:20:46;;;;;;;16.37;6.03;;;27.00;78.20;;;;;;1952540;73;21034;-69
2022/08/30 06:23:16;;;;;;;12.37;5.62;;;27.00;78.00;;;;;;1930193;73;21479;-69
2022/08/30 06:25:45;;;;;;;18.52;6.28;;;27.10;77.90;;;;;;1949090;73;21022;-69
2022/08/30 06:28:15;;;;;;;16.12;6.12;;;27.20;77.80;;;;;;1949012;73;20998;-69
2022/08/30 06:30:44;;;;;;;12.20;5.58;;;27.20;77.40;;;;;;1949099;73;21010;-69
2022/08/30 06:33:13;;;;;;;18.32;6.35;;;27.30;76.80;;;;;;1949111;73;21054;-69
2022/08/30 06:35:43;;;;;;;15.68;6.05;;;27.30;76.60;;;;;;1948795;73;21002;-69
2022/08/30 06:38:12;;;;;;;19.75;6.08;;;27.30;77.20;;;;;;1949047;73;21072;-69
2022/08/30 06:40:41;;;;;;;18.40;5.97;;;27.30;76.10;;;;;;1948964;73;21010;-69
2022/08/30 06:43:11;;;;;;;12.82;5.47;;;27.40;75.90;;;;;;1949127;73;21080;-69
2022/08/30 06:45:40;;;;;;;15.25;6.85;;;27.40;75.20;;;;;;1949061;73;20998;-70
2022/08/30 06:48:09;;;;;;;13.50;5.33;;;27.50;75.50;;;;;;1949102;73;21022;-69
2022/08/30 06:50:40;;;;;;;18.02;6.58;;;27.50;75.30;;;;;;1949107;73;21014;-69
2022/08/30 06:53:10;;;;;;;16.80;5.08;;;27.60;75.40;;;;;;1949004;73;21017;-69
2022/08/30 06:55:39;;;;;;;15.18;6.67;;;27.60;74.90;;;;;;1949093;73;21014;-69
2022/08/30 06:58:08;;;;;;;18.73;8.10;;;27.70;75.00;;;;;;1949191;73;21018;-69
2022/08/30 07:00:39;;;;;;;16.73;6.30;;;27.70;74.50;;;;;;1948914;73;21108;-69
2022/08/30 07:03:08;;;;;;;17.15;8.48;;;27.80;74.60;;;;;;1949056;73;21103;-69
2022/08/30 07:05:37;;;;;;;20.27;7.95;;;27.90;74.40;;;;;;1948893;73;21061;-69
2022/08/30 07:08:07;;;;;;;20.40;6.60;;;27.90;74.40;;;;;;1948955;73;21091;-69
2022/08/30 07:10:40;;;;;;;20.00;6.15;;;28.00;74.00;;;;;;1948982;73;21006;-69
2022/08/30 07:13:11;;;;;;;19.90;6.85;;;28.00;74.10;;;;;;1949288;73;21034;-69
2022/08/30 07:15:43;;;;;;;14.90;6.55;;;28.10;74.50;;;;;;1946449;72;21030;-69
2022/08/30 07:21:09;;;;;;;14.98;5.95;;;28.10;74.50;;;;;;1945911;73;21046;-69
2022/08/30 07:23:38;;;;;;;13.98;5.72;;;28.20;74.40;;;;;;1945700;74;20994;-69
2022/08/30 07:26:09;;;;;;;17.48;6.97;;;28.20;74.40;;;;;;1945670;74;21014;-69
2022/08/30 07:28:40;;;;;;;17.82;5.80;;;28.30;74.50;;;;;;1945650;74;21006;-69
2022/08/30 07:31:11;;;;;;;14.68;5.65;;;28.40;74.40;;;;;;1945613;74;21099;-69
2022/08/30 07:33:40;;;;;;;16.02;5.72;;;28.40;73.90;;;;;;1945663;73;21026;-69
2022/08/30 07:36:10;;;;;;;17.42;6.50;;;28.50;73.80;;;;;;1945759;73;21018;-69
2022/08/30 07:38:40;;;;;;;16.55;5.75;;;28.50;73.60;;;;;;1945770;73;21026;-69
2022/08/30 07:41:09;;;;;;;18.20;7.22;;;28.60;73.60;;;;;;1945580;74;21079;-70
2022/08/30 07:43:38;;;;;;;17.37;6.00;;;28.60;73.40;;;;;;1945954;74;20995;-70
2022/08/30 07:46:08;;;;;;;14.20;5.97;;;28.70;73.50;;;;;;1945697;73;21026;-69
2022/08/30 07:48:38;;;;;;;16.60;6.70;;;28.70;73.40;;;;;;1945815;73;21091;-69
2022/08/30 07:51:15;;;;;;;14.80;6.95;;;28.80;73.10;;;;;;1945797;73;21434;-69
2022/08/30 07:53:45;;;;;;;13.00;6.42;;;28.90;72.90;;;;;;1945617;73;21520;-69
2022/08/30 07:56:15;;;;;;;14.78;6.00;;;28.90;72.70;;;;;;1945819;74;21069;-69
2022/08/30 07:58:44;;;;;;;17.00;7.08;;;28.90;72.50;;;;;;1945771;73;21010;-69
2022/08/30 08:01:13;;;;;;;14.68;5.50;;;28.90;72.60;;;;;;1945601;73;21081;-69
2022/08/30 08:03:43;;;;;;;17.60;5.62;;;29.00;72.90;;;;;;1945721;74;21010;-69
2022/08/30 08:06:14;;;;;;;14.87;5.67;;;29.00;72.50;;;;;;1945611;74;21390;-70
2022/08/30 08:08:44;;;;;;;24.27;6.85;;;29.10;72.30;;;;;;1945467;74;21022;-69
2022/08/30 08:11:18;;;;;;;12.50;6.67;;;29.10;72.40;;;;;;1945471;74;21072;-69
2022/08/30 08:13:49;;;;;;;11.40;5.20;;;29.20;72.50;;;;;;1945608;73;21077;-69
2022/08/30 08:16:20;;;;;;;19.48;6.05;;;29.20;72.20;;;;;;1945417;73;21054;-69
2022/08/30 08:18:50;;;;;;;13.32;5.92;;;29.20;71.70;;;;;;1945640;73;21087;-69
2022/08/30 08:21:19;;;;;;;14.40;5.47;;;29.20;71.70;;;;;;1945579;74;20987;-69
2022/08/30 08:23:48;;;;;;;16.93;6.40;;;29.20;71.90;;;;;;1945660;74;21018;-69
2022/08/30 08:26:19;;;;;;;13.58;6.17;;;29.30;71.80;;;;;;1945764;73;21038;-69
2022/08/30 08:28:48;;;;;;;13.98;5.65;;;29.30;71.10;;;;;;1945792;74;21080;-70
2022/08/30 08:31:23;;;;;;;20.80;5.92;;;29.30;71.40;;;;;;1945648;74;21514;-69
2022/08/30 08:33:52;;;;;;;17.45;7.12;;;29.40;71.80;;;;;;1945679;73;21015;-69
2022/08/30 08:36:22;;;;;;;14.00;5.78;;;29.40;71.60;;;;;;1945661;73;21095;-69
2022/08/30 08:38:52;;;;;;;11.57;5.83;;;29.50;69.60;;;;;;1945495;74;20998;-70
2022/08/30 08:41:57;;;;;;;18.77;5.75;;;29.50;69.70;;;;;;1943998;74;21018;-62
2022/08/30 08:44:57;;;;;;;13.20;5.22;;;29.60;69.70;;;;;;1945075;74;21034;-67
2022/08/30 08:47:37;;;;;;;18.15;5.50;;;29.60;69.50;;;;;;1944775;73;21008;-65
2022/08/30 08:50:08;;;;;;;14.13;6.90;;;29.60;69.20;;;;;;1944811;74;21515;-65
2022/08/30 08:55:45;;;;;;;10.70;5.65;;;29.70;68.80;;;;;;1944768;73;21042;-66
2022/08/30 08:58:20;;;;;;;16.85;6.25;;;29.80;68.70;;;;;;1945182;73;21106;-69
2022/08/30 09:00:49;;;;;;;12.85;5.20;;;29.80;68.70;;;;;;1944910;74;21041;-66
2022/08/30 09:03:21;;;;;;;15.40;5.12;;;29.90;68.40;;;;;;1944929;74;21022;-69
2022/08/30 09:05:52;;;;;;;13.20;5.03;;;29.90;67.50;;;;;;1945052;74;21582;-63
2022/08/30 09:08:22;;;;;;;14.43;4.97;;;29.90;66.70;;;;;;1934109;74;21095;-73
2022/08/30 09:11:03;;;;;;;9.60;4.03;;;30.00;66.60;;;;;;1924973;74;21075;-62
2022/08/30 09:13:32;;;;;;;16.17;5.03;;;30.00;65.00;;;;;;1925318;74;22063;-67
2022/08/30 09:16:04;;;;;;;12.80;5.10;;;30.00;64.10;;;;;;1925094;74;21123;-67
2022/08/30 09:18:49;;;;;;;16.52;7.70;;;30.00;64.20;;;;;;1925066;74;21135;-67
2022/08/30 09:21:23;;;;;;;12.78;5.05;;;30.10;64.90;;;;;;1925039;73;21099;-67
2022/08/30 09:23:57;;;;;;;13.38;4.05;;;30.20;66.00;;;;;;1925150;73;21684;-67
2022/08/30 09:26:31;;;;;;;;;;;30.20;64.30;;;;;;1927925;74;21141;-67
2022/08/30 09:29:00;;;;;;;11.30;4.17;;;30.30;64.20;;;;;;1925164;74;20147;-67
2022/08/30 09:31:32;;;;;;;12.25;4.08;;;30.30;62.20;;;;;;1925241;74;21133;-67
2022/08/30 09:34:10;;;;;;;20.70;4.58;;;30.20;62.10;;;;;;1925043;74;21103;-67
2022/08/30 09:36:48;;;;;;;19.17;5.28;;;30.30;62.20;;;;;;1924531;74;21076;-67
2022/08/30 09:39:36;;;;;;;10.32;4.35;;;30.40;62.50;;;;;;1925075;74;21001;-66
2022/08/30 09:42:20;;;;;;;18.17;5.55;;;30.40;62.60;;;;;;1924349;74;21088;-66
2022/08/30 09:44:50;;;;;;;22.90;6.05;;;30.40;63.00;;;;;;1925300;74;21510;-66
2022/08/30 09:47:30;;;;;;;11.35;6.37;;;30.50;62.10;;;;;;1933870;74;21034;-64
2022/08/30 09:50:08;;;;;;;15.03;5.37;;;30.50;61.60;;;;;;1932413;73;21077;-63
2022/08/30 09:52:52;;;;;;;18.17;5.62;;;30.60;62.20;;;;;;1945178;73;21472;-66
2022/08/30 09:55:41;;;;;;;12.37;5.30;;;30.60;62.00;;;;;;1944629;74;21103;-62
2022/08/30 09:58:13;;;;;;;11.35;4.37;;;30.70;60.90;;;;;;1944748;74;21057;-67
2022/08/30 10:01:10;;;;;;;10.75;4.47;;;30.60;60.70;;;;;;1945054;73;21113;-65
2022/08/30 10:03:44;;;;;;;8.38;4.10;;;30.70;60.20;;;;;;1945227;74;21062;-62
2022/08/30 10:06:28;;;;;;;8.70;3.95;;;30.70;60.20;;;;;;1944378;74;21604;-66
2022/08/30 10:09:22;;;;;;;11.03;4.93;;;30.80;60.10;;;;;;1944938;74;21144;-70
2022/08/30 10:12:00;;;;;;;10.82;4.35;;;30.80;59.30;;;;;;1945480;74;21096;-71
2022/08/30 10:14:44;;;;;;;18.30;5.92;;;30.90;59.80;;;;;;1945132;73;21151;-71
2022/08/30 10:17:37;;;;;;;17.45;5.40;;;30.90;59.50;;;;;;1946926;73;21022;-66
2022/08/30 10:20:25;;;;;;;16.37;4.90;;;30.90;59.50;;;;;;1948368;72;21082;-69
2022/08/30 10:23:05;;;;;;;16.12;5.10;;;31.00;58.10;;;;;;1947603;73;21014;-68
2022/08/30 10:25:40;;;;;;;11.25;4.97;;;31.00;58.30;;;;;;1948467;73;21609;-66
2022/08/30 10:28:18;;;;;;;13.98;5.25;;;31.00;58.00;;;;;;1948428;73;21069;-64
2022/08/30 10:30:49;;;;;;;30.02;6.22;;;31.00;58.20;;;;;;1948137;73;21093;-70
2022/08/30 10:33:22;;;;;;;17.73;5.60;;;31.00;58.20;;;;;;1931128;73;22222;-66
2022/08/30 10:35:56;;;;;;;12.93;4.90;;;31.10;58.00;;;;;;1947654;73;21002;-62
2022/08/30 10:38:34;;;;;;;11.55;5.15;;;31.10;59.20;;;;;;1948103;73;21081;-62
2022/08/30 10:41:15;;;;;;;20.72;6.20;;;31.10;60.30;;;;;;1948575;73;21006;-63
2022/08/30 10:43:54;;;;;;;11.05;4.75;;;31.10;60.40;;;;;;1948312;73;21139;-64
2022/08/30 10:46:42;;;;;;;8.78;5.10;;;31.10;60.50;;;;;;1948250;73;21154;-66
2022/08/30 10:49:16;;;;;;;13.68;5.15;;;31.10;60.50;;;;;;1930106;72;21048;-65
2022/08/30 10:51:48;;;;;;;11.78;4.70;;;31.10;60.40;;;;;;1924867;74;21080;-65
2022/08/30 10:54:22;;;;;;;10.82;3.95;;;31.10;60.50;;;;;;1925580;74;21014;-65
2022/08/30 10:56:52;;;;;;;15.50;4.17;;;31.20;59.00;;;;;;1889141;76;21488;-65
2022/08/30 10:59:22;;;;;;;17.42;5.00;;;31.20;59.50;;;;;;1925730;74;21014;-62
2022/08/30 11:01:56;;;;;;;18.15;5.12;;;31.20;58.70;;;;;;1890948;76;21041;-64
2022/08/30 11:04:42;;;;;;;18.95;6.25;;;31.20;58.30;;;;;;1925972;74;21029;-65
2022/08/30 11:07:38;;;;;;;20.92;5.72;;;31.30;58.80;;;;;;1889606;75;21495;-64
2022/08/30 11:10:22;;;;;;;18.45;5.87;;;31.30;58.40;;;;;;1925699;74;21072;-63
2022/08/30 11:13:18;;;;;;;16.80;4.53;;;31.40;58.20;;;;;;1891215;75;21033;-64
2022/08/30 11:16:14;;;;;;;16.48;4.53;;;31.50;57.40;;;;;;1922460;74;21094;-64
2022/08/30 11:18:51;;;;;;;24.25;5.25;;;31.50;55.90;;;;;;1890887;76;21057;-65
2022/08/30 11:21:41;;;;;;;15.93;4.70;;;31.40;56.00;;;;;;1925364;74;21555;-69
2022/08/30 11:24:24;;;;;;;15.03;4.47;;;31.40;56.30;;;;;;1891034;75;21150;-64
2022/08/30 11:26:56;;;;;;;14.18;4.67;;;31.40;56.00;;;;;;1925630;74;21041;-67
2022/08/30 11:29:31;;;;;;;17.45;4.80;;;31.50;56.60;;;;;;1925645;74;21417;-66
2022/08/30 11:32:17;;;;;;;19.50;5.60;;;31.40;56.90;;;;;;1922725;74;21101;-69
2022/08/30 11:34:49;;;;;;;13.40;5.83;;;31.50;57.60;;;;;;1925519;74;21119;-67
2022/08/30 11:37:40;;;;;;;17.70;5.20;;;31.50;57.20;;;;;;1922617;74;21117;-67
2022/08/30 11:40:24;;;;;;;11.10;5.40;;;31.60;56.90;;;;;;1890786;76;21033;-64
2022/08/30 11:42:55;;;;;;;11.40;4.65;;;31.60;57.40;;;;;;1924492;74;21053;-64
2022/08/30 11:45:27;;;;;;;13.83;5.70;;;31.60;57.60;;;;;;1925487;74;21107;-67
2022/08/30 11:48:02;;;;;;;14.58;4.60;;;31.60;58.10;;;;;;1925666;74;21045;-63
2022/08/30 11:50:34;;;;;;;14.83;5.60;;;31.60;58.20;;;;;;1925624;74;21452;-65
2022/08/30 11:53:21;;;;;;;12.50;4.67;;;31.60;58.90;;;;;;1925920;74;21541;-63
2022/08/30 11:55:55;;;;;;;13.25;4.58;;;31.60;58.10;;;;;;1890978;76;21092;-65
2022/08/30 11:58:30;;;;;;;13.70;4.60;;;31.60;58.30;;;;;;1922453;74;21057;-66
2022/08/30 12:01:08;;;;;;;9.78;4.53;;;31.60;57.90;;;;;;1925439;74;21103;-62
2022/08/30 12:03:37;;;;;;;13.32;4.72;;;31.60;57.20;;;;;;1919128;74;21113;-62
2022/08/30 12:06:08;;;;;;;19.62;5.17;;;31.70;57.30;;;;;;1890913;76;21166;-65
2022/08/30 12:08:43;;;;;;;15.40;4.75;;;31.70;57.40;;;;;;1922692;74;21078;-63
2022/08/30 12:11:15;;;;;;;16.80;4.55;;;31.70;56.90;;;;;;1924543;74;21561;-70
2022/08/30 12:13:47;;;;;;;15.38;5.15;;;31.70;56.70;;;;;;1925399;74;21075;-67
2022/08/30 12:16:19;;;;;;;14.70;4.90;;;31.70;56.90;;;;;;1925451;74;21091;-64
2022/08/30 12:18:59;;;;;;;14.85;4.83;;;31.70;57.50;;;;;;1925264;74;21045;-64
2022/08/30 12:21:30;;;;;;;13.80;5.72;;;31.80;57.70;;;;;;1923984;74;21022;-67
2022/08/30 12:24:08;;;;;;;16.23;4.95;;;31.80;57.70;;;;;;1925632;74;21018;-66
2022/08/30 12:26:40;;;;;;;13.83;4.42;;;31.70;58.10;;;;;;1924866;74;21037;-69
2022/08/30 12:29:21;;;;;;;14.47;4.92;;;31.70;58.50;;;;;;1924592;74;21460;-67
2022/08/30 12:31:56;;;;;;;13.80;5.05;;;31.70;58.40;;;;;;1925614;74;21080;-69
2022/08/30 12:34:34;;;;;;;14.73;5.42;;;31.70;58.90;;;;;;1925561;74;21572;-67
2022/08/30 12:37:12;;;;;;;9.20;4.85;;;31.70;59.00;;;;;;1925561;74;21134;-70
2022/08/30 12:39:43;;;;;;;14.83;4.97;;;31.70;59.40;;;;;;1924786;74;21610;-67
2022/08/30 12:42:23;;;;;;;10.93;4.58;;;31.70;58.90;;;;;;1925399;74;21021;-66
2022/08/30 12:44:56;;;;;;;10.53;5.20;;;31.80;59.50;;;;;;1925389;74;21061;-63
2022/08/30 12:47:45;;;;;;;10.10;4.83;;;31.80;59.30;;;;;;1925204;74;21061;-66
2022/08/30 12:50:17;;;;;;;14.47;5.25;;;31.80;59.70;;;;;;1925639;74;21065;-66
2022/08/30 12:52:49;;;;;;;13.35;4.80;;;31.80;60.40;;;;;;1923621;74;21057;-71
2022/08/30 12:55:21;;;;;;;14.43;5.53;;;31.80;59.70;;;;;;1925364;74;22167;-65
2022/08/30 12:58:08;;;;;;;18.85;5.60;;;31.80;59.60;;;;;;1925690;74;21113;-68
2022/08/30 13:00:39;;;;;;;8.83;4.30;;;31.80;59.70;;;;;;1925844;74;21008;-70
2022/08/30 13:03:37;;;;;;;11.57;4.37;;;31.80;59.40;;;;;;1925910;74;21065;-73
2022/08/30 13:06:08;;;;;;;10.90;4.10;;;31.80;59.00;;;;;;1925536;74;21039;-70
2022/08/30 13:08:47;;;;;;;11.12;4.92;;;31.80;59.20;;;;;;1926031;74;21119;-69
2022/08/30 13:11:25;;;;;;;20.43;5.37;;;31.80;59.30;;;;;;1926016;74;21050;-72
2022/08/30 13:14:19;;;;;;;16.57;5.72;;;31.80;58.90;;;;;;1925808;74;21419;-75
2022/08/30 13:16:49;;;;;;;10.58;4.60;;;31.80;59.20;;;;;;1925789;73;21102;-66